Time;durP1;ratioP1;P1;durP2;ratioP2;P2;SDS_P1;SDS_P2;PMS_P1;PMS_P2;Temp;Humidity;BMP_temperature;BMP_pressure;BME280_temperature;BME280_humidity;BME280_pressure;Samples;Min_cycle;Max_cycle;Signal;HPM_P1;HPM_P2
2020/12/16 00:01:19;;;;;;;;;;;;;;;;;;5038003;28;19909;-43
2020/12/16 00:03:44;;;;;;;;;;;;;;;;;;5037533;28;20007;-44
2020/12/16 00:06:09;;;;;;;;;;;;;;;;;;5038150;28;20394;-45
2020/12/16 00:08:34;;;;;;;;;;;;;;;;;;5037978;28;19916;-44
2020/12/16 00:10:59;;;;;;;;;;;;;;;;;;5038184;28;19909;-45
2020/12/16 00:13:24;;;;;;;;;;;;;;;;;;5037236;28;19909;-44
2020/12/16 00:15:49;;;;;;;;;;;;;;;;;;5037555;28;20264;-44
2020/12/16 00:18:14;;;;;;;;;;;;;;;;;;5037830;28;19995;-43
2020/12/16 00:20:40;;;;;;;;;;;;;;;;;;5037453;28;20275;-43
2020/12/16 00:23:05;;;;;;;;;;;;;;;;;;5037021;28;20285;-43
2020/12/16 00:25:30;;;;;;;;;;;;;;;;;;5037083;28;19909;-43
2020/12/16 00:27:55;;;;;;;;;;;;;;;;;;5037132;28;19917;-44
2020/12/16 00:30:20;;;;;;;;;;;;;;;;;;5037798;28;19931;-44
2020/12/16 00:32:45;;;;;;;;;;;;;;;;;;5037118;28;19906;-44
2020/12/16 00:35:10;;;;;;;;;;;;;;;;;;5037665;28;19909;-44
2020/12/16 00:37:35;;;;;;;;;;;;;;;;;;5036990;28;19916;-43
2020/12/16 00:40:01;;;;;;;;;;;;;;;;;;5037407;28;19913;-43
2020/12/16 00:42:26;;;;;;;;;;;;;;;;;;5037573;28;19971;-46
2020/12/16 00:44:51;;;;;;;;;;;;;;;;;;5037106;28;20267;-42
2020/12/16 00:47:16;;;;;;;;;;;;;;;;;;5037524;28;20332;-44
2020/12/16 00:49:41;;;;;;;;;;;;;;;;;;5036806;28;20373;-44
2020/12/16 00:52:06;;;;;;;;;;;;;;;;;;5036651;28;20007;-44
2020/12/16 00:54:31;;;;;;;;;;;;;;;;;;5037209;28;19952;-44
2020/12/16 00:56:56;;;;;;;;;;;;;;;;;;5037065;28;19951;-44
2020/12/16 00:59:21;;;;;;;;;;;;;;;;;;5036832;28;19964;-44
2020/12/16 01:01:46;;;;;;;;;;;;;;;;;;5036822;28;19937;-44
2020/12/16 01:04:12;;;;;;;;;;;;;;;;;;5036783;28;19913;-44
2020/12/16 01:06:38;;;;;;;;;;;;;;;;;;5036737;28;19917;-44
2020/12/16 01:09:03;;;;;;;;;;;;;;;;;;5036363;28;19909;-44
2020/12/16 01:11:28;;;;;;;;;;;;;;;;;;5036932;28;19931;-43
2020/12/16 01:13:53;;;;;;;;;;;;;;;;;;5036783;28;19916;-45
2020/12/16 01:16:18;;;;;;;;;;;;;;;;;;5036365;28;20003;-43
2020/12/16 01:18:43;;;;;;;;;;;;;;;;;;5037113;28;20007;-42
2020/12/16 01:21:08;;;;;;;;;;;;;;;;;;5036702;28;19963;-43
2020/12/16 01:23:33;;;;;;;;;;;;;;;;;;5036178;28;19967;-43
2020/12/16 01:25:59;;;;;;;;;;;;;;;;;;5036866;28;19948;-43
2020/12/16 01:28:24;;;;;;;;;;;;;;;;;;5090732;22;19929;-39
2020/12/16 01:30:49;;;;;;;;;;;;;;;;;;5033126;28;20004;-40
2020/12/16 01:33:14;;;;;;;;;;;;;;;;;;5032439;28;20000;-40
2020/12/16 01:35:39;;;;;;;;;;;;;;;;;;5033230;28;20000;-40
2020/12/16 01:38:04;;;;;;;;;;;;;;;;;;5033045;28;20329;-39
2020/12/16 01:40:29;;;;;;;;;;;;;;;;;;5032957;28;20008;-39
2020/12/16 01:42:54;;;;;;;;;;;;;;;;;;5028487;28;19921;-39
2020/12/16 01:45:20;;;;;;;;;;;;;;;;;;5032011;28;19992;-39
2020/12/16 01:47:45;;;;;;;;;;;;;;;;;;5031086;28;20012;-39
2020/12/16 01:50:10;;;;;;;;;;;;;;;;;;5033008;28;19945;-38
2020/12/16 01:52:35;;;;;;;;;;;;;;;;;;5032055;28;20008;-39
2020/12/16 01:55:00;;;;;;;;;;;;;;;;;;5032773;28;19992;-39
2020/12/16 01:57:25;;;;;;;;;;;;;;;;;;5032651;28;20422;-39
2020/12/16 01:59:50;;;;;;;;;;;;;;;;;;5032660;28;19909;-40
2020/12/16 02:02:15;;;;;;;;;;;;;;;;;;5031819;28;19916;-37
2020/12/16 02:04:41;;;;;;;;;;;;;;;;;;5032508;28;19909;-39
2020/12/16 02:07:06;;;;;;;;;;;;;;;;;;5031147;28;19910;-40
2020/12/16 02:09:31;;;;;;;;;;;;;;;;;;5032162;28;19910;-38
2020/12/16 02:11:56;;;;;;;;;;;;;;;;;;5032049;28;19913;-37
2020/12/16 02:14:21;;;;;;;;;;;;;;;;;;5032337;28;19915;-38
2020/12/16 02:16:46;;;;;;;;;;;;;;;;;;5032697;28;19925;-39
2020/12/16 02:19:11;;;;;;;;;;;;;;;;;;5032387;28;20410;-39
2020/12/16 02:21:37;;;;;;;;;;;;;;;;;;5032293;28;19913;-38
2020/12/16 02:24:02;;;;;;;;;;;;;;;;;;5031918;28;20004;-39
2020/12/16 02:26:27;;;;;;;;;;;;;;;;;;5032211;28;19909;-39
2020/12/16 02:28:52;;;;;;;;;;;;;;;;;;5032054;28;19966;-39
2020/12/16 02:31:17;;;;;;;;;;;;;;;;;;5032489;28;19909;-39
2020/12/16 02:33:42;;;;;;;;;;;;;;;;;;5031486;28;19913;-39
2020/12/16 02:36:08;;;;;;;;;;;;;;;;;;5032153;28;19913;-39
2020/12/16 02:38:33;;;;;;;;;;;;;;;;;;5032015;28;19909;-40
2020/12/16 02:40:58;;;;;;;;;;;;;;;;;;5032193;28;19963;-38
2020/12/16 02:43:23;;;;;;;;;;;;;;;;;;5031762;28;19979;-38
2020/12/16 02:45:48;;;;;;;;;;;;;;;;;;5032197;28;20273;-38
2020/12/16 02:48:13;;;;;;;;;;;;;;;;;;5030285;28;19909;-39
2020/12/16 02:50:38;;;;;;;;;;;;;;;;;;5032036;28;19909;-39
2020/12/16 02:53:04;;;;;;;;;;;;;;;;;;5031334;28;20388;-39
2020/12/16 02:55:29;;;;;;;;;;;;;;;;;;5032079;28;20355;-39
2020/12/16 02:57:54;;;;;;;;;;;;;;;;;;5032028;28;19917;-38
2020/12/16 03:00:19;;;;;;;;;;;;;;;;;;5031985;28;19909;-40
2020/12/16 03:02:44;;;;;;;;;;;;;;;;;;5031131;28;19935;-38
2020/12/16 03:05:09;;;;;;;;;;;;;;;;;;5031976;28;19917;-39
2020/12/16 03:07:34;;;;;;;;;;;;;;;;;;5031919;28;19909;-38
2020/12/16 03:09:59;;;;;;;;;;;;;;;;;;5031853;28;19915;-39
2020/12/16 03:12:24;;;;;;;;;;;;;;;;;;5031057;28;19919;-39
2020/12/16 03:14:50;;;;;;;;;;;;;;;;;;5031870;28;19913;-40
2020/12/16 03:17:15;;;;;;;;;;;;;;;;;;5031848;28;19991;-38
2020/12/16 03:19:40;;;;;;;;;;;;;;;;;;5031796;28;19909;-38
2020/12/16 03:22:05;;;;;;;;;;;;;;;;;;5033482;28;20355;-38
2020/12/16 03:24:30;;;;;;;;;;;;;;;;;;5034241;28;20011;-39
2020/12/16 03:26:55;;;;;;;;;;;;;;;;;;5035142;28;19909;-38
2020/12/16 03:29:20;;;;;;;;;;;;;;;;;;5035268;28;19917;-38
2020/12/16 03:31:45;;;;;;;;;;;;;;;;;;5035533;28;19963;-39
2020/12/16 03:34:11;;;;;;;;;;;;;;;;;;5034598;28;20054;-39
2020/12/16 03:36:36;;;;;;;;;;;;;;;;;;5035198;28;19995;-38
2020/12/16 03:39:01;;;;;;;;;;;;;;;;;;5035227;28;20016;-39
2020/12/16 03:41:26;;;;;;;;;;;;;;;;;;5035358;28;19913;-40
2020/12/16 03:43:51;;;;;;;;;;;;;;;;;;5034471;28;20036;-39
2020/12/16 03:46:16;;;;;;;;;;;;;;;;;;5035365;28;19909;-39
2020/12/16 03:48:41;;;;;;;;;;;;;;;;;;5033395;28;19931;-38
2020/12/16 03:51:06;;;;;;;;;;;;;;;;;;5035053;28;20000;-39
2020/12/16 03:53:32;;;;;;;;;;;;;;;;;;5034264;28;20331;-38
2020/12/16 03:55:57;;;;;;;;;;;;;;;;;;5035174;28;19992;-39
2020/12/16 03:58:22;;;;;;;;;;;;;;;;;;5034829;28;19909;-38
2020/12/16 04:00:47;;;;;;;;;;;;;;;;;;5035057;28;19909;-39
2020/12/16 04:03:12;;;;;;;;;;;;;;;;;;5034056;28;20401;-38
2020/12/16 04:05:37;;;;;;;;;;;;;;;;;;5034793;28;19915;-39
2020/12/16 04:08:02;;;;;;;;;;;;;;;;;;5034666;28;20019;-39
2020/12/16 04:10:27;;;;;;;;;;;;;;;;;;5034555;28;20004;-39
2020/12/16 04:12:52;;;;;;;;;;;;;;;;;;5034056;28;20385;-38
2020/12/16 04:15:18;;;;;;;;;;;;;;;;;;5034536;28;20363;-39
2020/12/16 04:17:43;;;;;;;;;;;;;;;;;;5034661;28;19921;-39
2020/12/16 04:20:09;;;;;;;;;;;;;;;;;;5034479;28;20509;-39
2020/12/16 04:22:34;;;;;;;;;;;;;;;;;;5033557;28;19913;-39
2020/12/16 04:24:59;;;;;;;;;;;;;;;;;;5034522;28;19909;-38
2020/12/16 04:27:24;;;;;;;;;;;;;;;;;;5034496;28;19905;-38
2020/12/16 04:29:49;;;;;;;;;;;;;;;;;;5034304;28;19939;-39
2020/12/16 04:32:14;;;;;;;;;;;;;;;;;;5033214;28;19905;-39
2020/12/16 04:34:39;;;;;;;;;;;;;;;;;;5033920;28;19913;-40
2020/12/16 04:37:04;;;;;;;;;;;;;;;;;;5034184;28;19905;-39
2020/12/16 04:39:30;;;;;;;;;;;;;;;;;;5034430;28;19916;-39
2020/12/16 04:41:55;;;;;;;;;;;;;;;;;;5033891;28;19905;-39
2020/12/16 04:44:20;;;;;;;;;;;;;;;;;;5033431;28;19913;-39
2020/12/16 04:46:45;;;;;;;;;;;;;;;;;;5034011;28;19913;-38
2020/12/16 04:49:10;;;;;;;;;;;;;;;;;;5032420;28;19955;-39
2020/12/16 04:51:35;;;;;;;;;;;;;;;;;;5033925;28;19936;-39
2020/12/16 04:54:00;;;;;;;;;;;;;;;;;;5033226;28;20004;-39
2020/12/16 04:56:25;;;;;;;;;;;;;;;;;;5033772;28;20011;-38
2020/12/16 04:58:50;;;;;;;;;;;;;;;;;;5033770;28;20003;-39
2020/12/16 05:01:16;;;;;;;;;;;;;;;;;;5033834;28;20358;-39
2020/12/16 05:03:41;;;;;;;;;;;;;;;;;;5032978;28;19929;-38
2020/12/16 05:06:06;;;;;;;;;;;;;;;;;;5033718;28;19999;-38
2020/12/16 05:08:31;;;;;;;;;;;;;;;;;;5033509;28;19990;-39
2020/12/16 05:10:56;;;;;;;;;;;;;;;;;;5032250;28;20485;-40
2020/12/16 05:13:21;;;;;;;;;;;;;;;;;;5032788;28;20420;-38
2020/12/16 05:15:46;;;;;;;;;;;;;;;;;;5033366;28;19909;-40
2020/12/16 05:18:11;;;;;;;;;;;;;;;;;;5033322;28;19915;-39
2020/12/16 05:20:37;;;;;;;;;;;;;;;;;;5033405;28;19999;-39
2020/12/16 05:23:02;;;;;;;;;;;;;;;;;;5032540;28;19936;-38
2020/12/16 05:25:27;;;;;;;;;;;;;;;;;;5033375;28;20001;-39
2020/12/16 05:27:52;;;;;;;;;;;;;;;;;;5033272;28;19913;-39
2020/12/16 05:30:17;;;;;;;;;;;;;;;;;;5033076;28;19923;-39
2020/12/16 05:32:42;;;;;;;;;;;;;;;;;;5032474;28;19916;-39
2020/12/16 05:35:07;;;;;;;;;;;;;;;;;;5033182;28;19952;-38
2020/12/16 05:37:33;;;;;;;;;;;;;;;;;;5033048;28;19956;-38
2020/12/16 05:39:58;;;;;;;;;;;;;;;;;;5033314;28;20493;-39
2020/12/16 05:42:23;;;;;;;;;;;;;;;;;;5030759;28;20354;-40
2020/12/16 05:44:48;;;;;;;;;;;;;;;;;;5032206;28;19909;-38
2020/12/16 05:47:13;;;;;;;;;;;;;;;;;;5031898;28;19921;-40
2020/12/16 05:49:38;;;;;;;;;;;;;;;;;;5032881;28;19909;-38
2020/12/16 05:52:03;;;;;;;;;;;;;;;;;;5032209;28;19919;-39
2020/12/16 05:54:28;;;;;;;;;;;;;;;;;;5032638;28;19915;-39
2020/12/16 05:56:53;;;;;;;;;;;;;;;;;;5032754;28;19913;-39
2020/12/16 05:59:19;;;;;;;;;;;;;;;;;;5032670;28;19998;-39
2020/12/16 06:01:44;;;;;;;;;;;;;;;;;;5032620;28;19952;-39
2020/12/16 06:04:09;;;;;;;;;;;;;;;;;;5031912;28;19948;-39
2020/12/16 06:06:34;;;;;;;;;;;;;;;;;;5032526;28;19944;-39
2020/12/16 06:08:59;;;;;;;;;;;;;;;;;;5032463;28;19956;-39
2020/12/16 06:11:24;;;;;;;;;;;;;;;;;;5021074;28;19944;-39
2020/12/16 06:13:49;;;;;;;;;;;;;;;;;;4991914;28;20302;-39
2020/12/16 06:16:15;;;;;;;;;;;;;;;;;;4992218;28;19929;-39
2020/12/16 06:18:40;;;;;;;;;;;;;;;;;;4992159;28;19917;-40
2020/12/16 06:21:05;;;;;;;;;;;;;;;;;;4991385;28;19971;-39
2020/12/16 06:23:30;;;;;;;;;;;;;;;;;;4991524;28;20417;-38
2020/12/16 06:25:55;;;;;;;;;;;;;;;;;;4991520;28;19917;-38
2020/12/16 06:28:21;;;;;;;;;;;;;;;;;;4991634;28;20013;-38
2020/12/16 06:30:46;;;;;;;;;;;;;;;;;;4992011;28;19910;-39
2020/12/16 06:33:11;;;;;;;;;;;;;;;;;;4993267;28;19922;-40
2020/12/16 06:35:36;;;;;;;;;;;;;;;;;;5003140;28;19917;-41
2020/12/16 06:38:01;;;;;;;;;;;;;;;;;;5001907;28;19910;-39
2020/12/16 06:40:26;;;;;;;;;;;;;;;;;;4995173;28;19910;-40
2020/12/16 06:42:51;;;;;;;;;;;;;;;;;;5010039;28;19921;-39
2020/12/16 06:45:16;;;;;;;;;;;;;;;;;;5000934;28;19921;-39
2020/12/16 06:47:41;;;;;;;;;;;;;;;;;;4991255;28;20291;-38
2020/12/16 06:50:06;;;;;;;;;;;;;;;;;;4990670;28;19910;-39
2020/12/16 06:52:32;;;;;;;;;;;;;;;;;;4990697;28;19910;-38
2020/12/16 06:54:57;;;;;;;;;;;;;;;;;;5010538;28;19936;-39
2020/12/16 06:57:22;;;;;;;;;;;;;;;;;;5013604;28;19956;-38
2020/12/16 06:59:47;;;;;;;;;;;;;;;;;;5014657;28;19931;-48
2020/12/16 07:02:12;;;;;;;;;;;;;;;;;;5014317;28;19921;-40
2020/12/16 07:04:37;;;;;;;;;;;;;;;;;;5014076;28;20000;-39
2020/12/16 07:07:02;;;;;;;;;;;;;;;;;;5013926;28;20282;-39
2020/12/16 07:09:28;;;;;;;;;;;;;;;;;;5014153;28;19913;-38
2020/12/16 07:11:53;;;;;;;;;;;;;;;;;;4996838;28;19910;-39
2020/12/16 07:14:18;;;;;;;;;;;;;;;;;;4994280;28;19960;-38
2020/12/16 07:16:43;;;;;;;;;;;;;;;;;;4994085;28;20637;-39
2020/12/16 07:19:08;;;;;;;;;;;;;;;;;;4994259;28;19910;-39
2020/12/16 07:21:34;;;;;;;;;;;;;;;;;;4999036;28;20007;-39
2020/12/16 07:23:59;;;;;;;;;;;;;;;;;;5013884;28;20347;-40
2020/12/16 07:26:24;;;;;;;;;;;;;;;;;;5013487;28;19916;-40
2020/12/16 07:28:49;;;;;;;;;;;;;;;;;;5013502;28;20461;-40
2020/12/16 07:31:14;;;;;;;;;;;;;;;;;;4996895;28;19909;-39
2020/12/16 07:33:39;;;;;;;;;;;;;;;;;;4992607;28;19910;-38
2020/12/16 07:36:05;;;;;;;;;;;;;;;;;;5054631;22;19906;-42
2020/12/16 07:38:31;;;;;;;;;;;;;;;;;;5035679;28;20007;-44
2020/12/16 07:40:56;;;;;;;;;;;;;;;;;;5036393;28;19909;-45
2020/12/16 07:43:21;;;;;;;;;;;;;;;;;;5035057;28;19914;-43
2020/12/16 07:45:46;;;;;;;;;;;;;;;;;;5035781;28;19913;-44
2020/12/16 07:48:11;;;;;;;;;;;;;;;;;;5035605;28;19909;-46
2020/12/16 07:50:36;;;;;;;;;;;;;;;;;;5034120;28;19920;-43
2020/12/16 07:53:01;;;;;;;;;;;;;;;;;;5036462;28;19916;-44
2020/12/16 07:55:27;;;;;;;;;;;;;;;;;;5035737;28;19916;-44
2020/12/16 07:57:52;;;;;;;;;;;;;;;;;;5036974;28;20334;-44
2020/12/16 08:00:17;;;;;;;;;;;;;;;;;;5037236;28;20370;-44
2020/12/16 08:02:44;;;;;;;;;;;;;;;;;;5037326;28;19917;-45
2020/12/16 08:05:09;;;;;;;;;;;;;;;;;;5037582;28;19910;-43
2020/12/16 08:07:34;;;;;;;;;;;;;;;;;;5036351;28;19920;-44
2020/12/16 08:09:59;;;;;;;;;;;;;;;;;;5040822;28;20007;-43
2020/12/16 08:12:24;;;;;;;;;;;;;;;;;;5040349;28;19941;-42
2020/12/16 08:14:49;;;;;;;;;;;;;;;;;;5041783;28;19916;-42
2020/12/16 08:17:14;;;;;;;;;;;;;;;;;;5042477;28;19913;-44
2020/12/16 08:19:40;;;;;;;;;;;;;;;;;;5042717;28;19916;-43
2020/12/16 08:22:05;;;;;;;;;;;;;;;;;;5043084;28;19916;-45
2020/12/16 08:24:30;;;;;;;;;;;;;;;;;;5042826;28;19910;-44
2020/12/16 08:26:55;;;;;;;;;;;;;;;;;;5038016;28;19909;-42
2020/12/16 08:29:20;;;;;;;;;;;;;;;;;;5038102;28;20409;-46
2020/12/16 08:31:45;;;;;;;;;;;;;;;;;;5038551;28;19909;-44
2020/12/16 08:34:10;;;;;;;;;;;;;;;;;;5040787;28;19934;-43
2020/12/16 08:36:35;;;;;;;;;;;;;;;;;;5037608;28;19966;-45
2020/12/16 08:39:00;;;;;;;;;;;;;;;;;;5037913;28;20003;-46
2020/12/16 08:41:25;;;;;;;;;;;;;;;;;;5038941;28;19960;-43
2020/12/16 08:43:51;;;;;;;;;;;;;;;;;;5037784;28;19920;-44
2020/12/16 08:46:16;;;;;;;;;;;;;;;;;;5038378;28;19935;-44
2020/12/16 08:48:41;;;;;;;;;;;;;;;;;;5038308;28;19909;-45
2020/12/16 08:51:06;;;;;;;;;;;;;;;;;;5037673;28;19917;-45
2020/12/16 08:53:31;;;;;;;;;;;;;;;;;;5037774;28;20009;-43
2020/12/16 08:55:57;;;;;;;;;;;;;;;;;;5036872;28;19948;-45
2020/12/16 08:58:22;;;;;;;;;;;;;;;;;;5038004;28;19959;-43
2020/12/16 09:00:47;;;;;;;;;;;;;;;;;;5037219;28;19963;-44
2020/12/16 09:03:12;;;;;;;;;;;;;;;;;;5037340;28;19975;-44
2020/12/16 09:05:37;;;;;;;;;;;;;;;;;;5038208;28;19914;-43
2020/12/16 09:08:02;;;;;;;;;;;;;;;;;;5037528;28;19916;-44
2020/12/16 09:10:27;;;;;;;;;;;;;;;;;;5037904;28;19909;-44
2020/12/16 09:12:53;;;;;;;;;;;;;;;;;;5036684;28;19916;-42
2020/12/16 09:15:18;;;;;;;;;;;;;;;;;;5037109;28;19909;-43
2020/12/16 09:17:44;;;;;;;;;;;;;;;;;;5037176;28;19909;-46
2020/12/16 09:20:09;;;;;;;;;;;;;;;;;;5037757;28;19916;-46
2020/12/16 09:22:34;;;;;;;;;;;;;;;;;;5036789;28;19960;-41
2020/12/16 09:24:59;;;;;;;;;;;;;;;;;;5036821;28;19952;-46
2020/12/16 09:27:24;;;;;;;;;;;;;;;;;;5036614;28;20055;-43
2020/12/16 09:29:49;;;;;;;;;;;;;;;;;;5037173;28;19909;-45
2020/12/16 09:32:15;;;;;;;;;;;;;;;;;;5035497;28;19956;-47
2020/12/16 09:34:40;;;;;;;;;;;;;;;;;;5036947;28;20362;-43
2020/12/16 09:37:05;;;;;;;;;;;;;;;;;;5036008;28;19917;-45
2020/12/16 09:39:30;;;;;;;;;;;;;;;;;;5035981;28;20394;-44
2020/12/16 09:41:55;;;;;;;;;;;;;;;;;;5035523;28;19909;-43
2020/12/16 09:44:20;;;;;;;;;;;;;;;;;;5035574;28;19920;-43
2020/12/16 09:46:46;;;;;;;;;;;;;;;;;;5035984;28;19924;-43
2020/12/16 09:49:11;;;;;;;;;;;;;;;;;;5035679;28;19909;-43
2020/12/16 09:51:36;;;;;;;;;;;;;;;;;;5036473;28;19909;-44
2020/12/16 09:54:01;;;;;;;;;;;;;;;;;;5035096;28;20008;-42
2020/12/16 09:56:26;;;;;;;;;;;;;;;;;;5035658;28;20016;-45
2020/12/16 09:58:51;;;;;;;;;;;;;;;;;;5035786;28;19910;-43
2020/12/16 10:01:16;;;;;;;;;;;;;;;;;;5035778;28;20329;-43
2020/12/16 10:03:41;;;;;;;;;;;;;;;;;;5036214;28;19920;-43
2020/12/16 10:06:07;;;;;;;;;;;;;;;;;;5035539;28;19920;-42
2020/12/16 10:08:32;;;;;;;;;;;;;;;;;;5036097;28;19995;-44
2020/12/16 10:10:57;;;;;;;;;;;;;;;;;;5035935;28;19913;-42
2020/12/16 10:13:22;;;;;;;;;;;;;;;;;;5035411;28;19909;-44
2020/12/16 10:15:47;;;;;;;;;;;;;;;;;;5035161;28;19997;-43
2020/12/16 10:18:12;;;;;;;;;;;;;;;;;;5034890;28;19916;-45
2020/12/16 10:20:38;;;;;;;;;;;;;;;;;;5034816;28;19920;-43
2020/12/16 10:23:03;;;;;;;;;;;;;;;;;;5033567;28;19921;-44
2020/12/16 10:25:28;;;;;;;;;;;;;;;;;;5034250;28;19945;-44
2020/12/16 10:27:53;;;;;;;;;;;;;;;;;;5034692;28;19917;-44
2020/12/16 10:30:18;;;;;;;;;;;;;;;;;;5033265;28;19929;-45
2020/12/16 10:32:44;;;;;;;;;;;;;;;;;;5033542;28;20011;-43
2020/12/16 10:35:09;;;;;;;;;;;;;;;;;;5033825;28;19919;-46
2020/12/16 10:37:35;;;;;;;;;;;;;;;;;;5034142;28;19917;-43
2020/12/16 10:40:00;;;;;;;;;;;;;;;;;;5032187;28;19917;-41
2020/12/16 10:42:25;;;;;;;;;;;;;;;;;;5033451;28;19921;-44
2020/12/16 10:44:50;;;;;;;;;;;;;;;;;;5033845;28;19915;-40
2020/12/16 10:47:15;;;;;;;;;;;;;;;;;;5033541;28;20010;-45
2020/12/16 10:49:40;;;;;;;;;;;;;;;;;;5032920;28;19909;-45
2020/12/16 10:52:05;;;;;;;;;;;;;;;;;;5033237;28;19916;-44
2020/12/16 10:54:30;;;;;;;;;;;;;;;;;;5033165;28;20359;-43
2020/12/16 10:56:56;;;;;;;;;;;;;;;;;;5032001;28;19927;-44
2020/12/16 10:59:21;;;;;;;;;;;;;;;;;;5032623;28;20008;-44
2020/12/16 11:01:46;;;;;;;;;;;;;;;;;;5033376;28;19914;-45
2020/12/16 11:04:11;;;;;;;;;;;;;;;;;;5032318;28;19913;-44
2020/12/16 11:06:36;;;;;;;;;;;;;;;;;;5032868;28;19916;-44
2020/12/16 11:09:01;;;;;;;;;;;;;;;;;;5033358;28;20043;-44
2020/12/16 11:11:27;;;;;;;;;;;;;;;;;;5034109;28;19909;-44
2020/12/16 11:13:52;;;;;;;;;;;;;;;;;;5034485;28;19932;-44
2020/12/16 11:16:17;;;;;;;;;;;;;;;;;;5031333;28;20370;-45
2020/12/16 11:18:43;;;;;;;;;;;;;;;;;;5030478;28;19999;-44
2020/12/16 11:21:08;;;;;;;;;;;;;;;;;;5034564;28;20393;-43
2020/12/16 11:23:33;;;;;;;;;;;;;;;;;;5034022;28;19914;-44
2020/12/16 11:25:58;;;;;;;;;;;;;;;;;;5033111;28;19915;-43
2020/12/16 11:28:23;;;;;;;;;;;;;;;;;;5033647;28;19980;-45
2020/12/16 11:30:48;;;;;;;;;;;;;;;;;;5032589;28;20011;-44
2020/12/16 11:33:13;;;;;;;;;;;;;;;;;;5033556;28;19909;-44
2020/12/16 11:35:38;;;;;;;;;;;;;;;;;;5033082;28;19917;-43
2020/12/16 11:38:03;;;;;;;;;;;;;;;;;;5034061;28;20583;-46
2020/12/16 11:40:29;;;;;;;;;;;;;;;;;;5034435;28;19920;-40
2020/12/16 11:42:54;;;;;;;;;;;;;;;;;;5035831;28;20395;-45
2020/12/16 11:45:19;;;;;;;;;;;;;;;;;;5037025;28;19936;-44
2020/12/16 11:47:44;;;;;;;;;;;;;;;;;;5036663;28;20004;-44
2020/12/16 11:50:09;;;;;;;;;;;;;;;;;;5037734;28;19913;-44
2020/12/16 11:52:34;;;;;;;;;;;;;;;;;;5037898;28;19959;-44
2020/12/16 11:54:59;;;;;;;;;;;;;;;;;;5038291;28;20016;-44
2020/12/16 11:57:25;;;;;;;;;;;;;;;;;;5038077;28;19909;-43
2020/12/16 11:59:50;;;;;;;;;;;;;;;;;;5038591;28;20327;-43
2020/12/16 12:02:15;;;;;;;;;;;;;;;;;;5038138;28;19916;-44
2020/12/16 12:04:40;;;;;;;;;;;;;;;;;;5038628;28;20271;-46
2020/12/16 12:07:05;;;;;;;;;;;;;;;;;;5038817;28;19909;-44
2020/12/16 12:09:30;;;;;;;;;;;;;;;;;;5036558;28;19910;-44
2020/12/16 12:11:55;;;;;;;;;;;;;;;;;;5038043;28;19947;-41
2020/12/16 12:14:21;;;;;;;;;;;;;;;;;;5038296;28;19909;-45
2020/12/16 12:16:46;;;;;;;;;;;;;;;;;;5038166;28;19927;-43
2020/12/16 12:19:11;;;;;;;;;;;;;;;;;;5036752;28;19909;-43
2020/12/16 12:21:36;;;;;;;;;;;;;;;;;;5037821;28;19992;-45
2020/12/16 12:24:01;;;;;;;;;;;;;;;;;;5037600;28;19955;-44
2020/12/16 12:26:27;;;;;;;;;;;;;;;;;;5037999;28;19915;-44
2020/12/16 12:28:52;;;;;;;;;;;;;;;;;;5037722;28;19909;-43
2020/12/16 12:31:17;;;;;;;;;;;;;;;;;;5037672;28;20422;-43
2020/12/16 12:33:43;;;;;;;;;;;;;;;;;;5037889;28;19910;-43
2020/12/16 12:36:09;;;;;;;;;;;;;;;;;;5037495;28;19913;-44
2020/12/16 12:38:34;;;;;;;;;;;;;;;;;;5038325;28;19955;-44
2020/12/16 12:40:59;;;;;;;;;;;;;;;;;;5036264;28;19909;-44
2020/12/16 12:43:24;;;;;;;;;;;;;;;;;;5037763;28;19917;-43
2020/12/16 12:45:49;;;;;;;;;;;;;;;;;;5037032;28;19916;-43
2020/12/16 12:48:15;;;;;;;;;;;;;;;;;;5037783;28;19913;-43
2020/12/16 12:50:40;;;;;;;;;;;;;;;;;;5037528;28;19905;-43
2020/12/16 12:53:06;;;;;;;;;;;;;;;;;;5036930;28;19986;-44
2020/12/16 12:55:31;;;;;;;;;;;;;;;;;;5036750;28;19909;-42
2020/12/16 12:57:56;;;;;;;;;;;;;;;;;;5036257;28;19909;-43
2020/12/16 13:00:21;;;;;;;;;;;;;;;;;;5036463;28;19905;-42
2020/12/16 13:02:46;;;;;;;;;;;;;;;;;;5034729;28;20356;-43
2020/12/16 13:05:11;;;;;;;;;;;;;;;;;;5035058;28;19913;-42
2020/12/16 13:07:36;;;;;;;;;;;;;;;;;;5035112;28;20293;-43
2020/12/16 13:10:01;;;;;;;;;;;;;;;;;;5035854;28;19909;-46
2020/12/16 13:12:27;;;;;;;;;;;;;;;;;;5034881;28;19988;-43
2020/12/16 13:14:52;;;;;;;;;;;;;;;;;;5034955;28;19909;-46
2020/12/16 13:17:17;;;;;;;;;;;;;;;;;;5036459;28;19909;-39
2020/12/16 13:19:42;;;;;;;;;;;;;;;;;;5036485;28;19909;-42
2020/12/16 13:22:09;;;;;;;;;;;;;;;;;;5036329;28;19910;-43
2020/12/16 13:24:34;;;;;;;;;;;;;;;;;;5038149;28;19913;-43
2020/12/16 13:26:59;;;;;;;;;;;;;;;;;;5033429;28;19909;-42
2020/12/16 13:29:27;;;;;;;;;;;;;;;;;;5035412;28;19976;-43
2020/12/16 13:31:52;;;;;;;;;;;;;;;;;;5034196;28;19910;-45
2020/12/16 13:34:17;;;;;;;;;;;;;;;;;;5035141;28;19931;-43
2020/12/16 13:36:42;;;;;;;;;;;;;;;;;;5091141;22;19924;-37
2020/12/16 13:39:07;;;;;;;;;;;;;;;;;;5031947;28;19932;-36
2020/12/16 13:41:32;;;;;;;;;;;;;;;;;;5032347;28;19916;-36
2020/12/16 13:43:57;;;;;;;;;;;;;;;;;;5031096;28;19917;-36
2020/12/16 13:46:23;;;;;;;;;;;;;;;;;;5031710;28;19914;-36
2020/12/16 13:48:48;;;;;;;;;;;;;;;;;;5031884;28;19928;-38
2020/12/16 13:51:13;;;;;;;;;;;;;;;;;;5031876;28;19909;-38
2020/12/16 13:53:38;;;;;;;;;;;;;;;;;;5031060;28;19909;-38
2020/12/16 13:56:03;;;;;;;;;;;;;;;;;;5032226;28;19913;-40
2020/12/16 13:58:28;;;;;;;;;;;;;;;;;;5031772;28;19913;-38
2020/12/16 14:00:53;;;;;;;;;;;;;;;;;;5031782;28;20849;-36
2020/12/16 14:03:18;;;;;;;;;;;;;;;;;;5030831;28;20287;-39
2020/12/16 14:05:43;;;;;;;;;;;;;;;;;;5030996;28;20462;-38
2020/12/16 14:08:09;;;;;;;;;;;;;;;;;;5031588;28;20011;-37
2020/12/16 14:10:34;;;;;;;;;;;;;;;;;;5031346;28;20007;-33
2020/12/16 14:13:00;;;;;;;;;;;;;;;;;;5030998;28;20008;-38
2020/12/16 14:15:26;;;;;;;;;;;;;;;;;;5031313;28;20370;-37
2020/12/16 14:17:51;;;;;;;;;;;;;;;;;;5031419;28;20381;-35
2020/12/16 14:20:16;;;;;;;;;;;;;;;;;;5031375;28;19909;-38
2020/12/16 14:22:41;;;;;;;;;;;;;;;;;;5030321;28;19924;-38
2020/12/16 14:25:06;;;;;;;;;;;;;;;;;;5031359;28;19909;-35
2020/12/16 14:27:47;;;;;;;;;;;;;;;;;;5008285;28;20202;-35
2020/12/16 14:30:12;;;;;;;;;;;;;;;;;;5031273;28;19909;-35
2020/12/16 14:32:37;;;;;;;;;;;;;;;;;;5030356;28;20398;-35
2020/12/16 14:35:02;;;;;;;;;;;;;;;;;;5030017;28;19916;-37
2020/12/16 14:37:27;;;;;;;;;;;;;;;;;;5031061;28;19967;-37
2020/12/16 14:39:53;;;;;;;;;;;;;;;;;;5031292;28;19909;-37
2020/12/16 14:42:18;;;;;;;;;;;;;;;;;;5030298;28;19909;-38
2020/12/16 14:44:43;;;;;;;;;;;;;;;;;;5030873;28;19909;-40
2020/12/16 14:47:08;;;;;;;;;;;;;;;;;;5031111;28;19917;-37
2020/12/16 14:49:33;;;;;;;;;;;;;;;;;;5030976;28;20344;-40
2020/12/16 14:51:59;;;;;;;;;;;;;;;;;;5030878;28;19916;-36
2020/12/16 14:54:24;;;;;;;;;;;;;;;;;;5030924;28;20274;-38
2020/12/16 14:56:49;;;;;;;;;;;;;;;;;;5030911;28;19989;-37
2020/12/16 14:59:14;;;;;;;;;;;;;;;;;;5031040;28;19909;-38
2020/12/16 15:01:39;;;;;;;;;;;;;;;;;;5031080;28;19917;-39
2020/12/16 15:04:04;;;;;;;;;;;;;;;;;;5030266;28;20004;-34
2020/12/16 15:06:29;;;;;;;;;;;;;;;;;;5030823;28;20593;-38
2020/12/16 15:08:54;;;;;;;;;;;;;;;;;;5030614;28;20375;-37
2020/12/16 15:11:19;;;;;;;;;;;;;;;;;;5030722;28;20393;-38
2020/12/16 15:13:45;;;;;;;;;;;;;;;;;;5023026;28;19921;-43
2020/12/16 15:16:10;;;;;;;;;;;;;;;;;;5025657;28;20393;-41
2020/12/16 15:18:35;;;;;;;;;;;;;;;;;;5034372;28;20382;-36
2020/12/16 15:21:00;;;;;;;;;;;;;;;;;;5034579;28;19913;-37
2020/12/16 15:23:25;;;;;;;;;;;;;;;;;;5033817;28;19913;-37
2020/12/16 15:25:50;;;;;;;;;;;;;;;;;;5034199;28;19996;-39
2020/12/16 15:28:15;;;;;;;;;;;;;;;;;;5033045;28;20008;-43
2020/12/16 15:30:40;;;;;;;;;;;;;;;;;;5034480;28;20007;-40
2020/12/16 15:33:06;;;;;;;;;;;;;;;;;;5033524;28;19996;-40
2020/12/16 15:35:31;;;;;;;;;;;;;;;;;;5033960;28;20003;-38
2020/12/16 15:37:56;;;;;;;;;;;;;;;;;;5034106;28;20359;-38
2020/12/16 15:40:21;;;;;;;;;;;;;;;;;;5034134;28;20008;-38
2020/12/16 15:42:46;;;;;;;;;;;;;;;;;;5033393;28;19913;-38
2020/12/16 15:45:11;;;;;;;;;;;;;;;;;;5033703;28;19909;-37
2020/12/16 15:47:36;;;;;;;;;;;;;;;;;;5034195;28;19963;-38
2020/12/16 15:50:01;;;;;;;;;;;;;;;;;;5032354;28;19909;-36
2020/12/16 15:52:27;;;;;;;;;;;;;;;;;;5031812;28;19909;-38
2020/12/16 15:54:52;;;;;;;;;;;;;;;;;;5033781;28;19916;-42
2020/12/16 15:57:17;;;;;;;;;;;;;;;;;;5033827;28;20362;-41
2020/12/16 15:59:42;;;;;;;;;;;;;;;;;;5034022;28;19909;-41
2020/12/16 16:02:07;;;;;;;;;;;;;;;;;;5031952;28;19981;-41
2020/12/16 16:04:32;;;;;;;;;;;;;;;;;;5030847;28;19917;-39
2020/12/16 16:06:57;;;;;;;;;;;;;;;;;;5032740;28;19909;-38
2020/12/16 16:09:22;;;;;;;;;;;;;;;;;;5031028;28;20364;-38
2020/12/16 16:11:47;;;;;;;;;;;;;;;;;;5031266;28;19917;-37
2020/12/16 16:14:13;;;;;;;;;;;;;;;;;;5030915;28;19921;-41
2020/12/16 16:16:38;;;;;;;;;;;;;;;;;;5030939;28;19913;-39
2020/12/16 16:19:03;;;;;;;;;;;;;;;;;;5031747;28;20333;-40
2020/12/16 16:21:28;;;;;;;;;;;;;;;;;;5030713;28;20271;-39
2020/12/16 16:23:53;;;;;;;;;;;;;;;;;;5032393;28;20246;-39
2020/12/16 16:26:18;;;;;;;;;;;;;;;;;;5032168;28;20341;-42
2020/12/16 16:28:43;;;;;;;;;;;;;;;;;;5031731;28;19909;-38
2020/12/16 16:31:08;;;;;;;;;;;;;;;;;;5032451;28;19909;-40